createdAt,value
2019-01-06T00:02:03.272Z,11.57
2019-01-06T00:04:48.749Z,11.17
2019-01-06T00:07:33.023Z,12.53
2019-01-06T00:10:19.764Z,10.87
2019-01-06T00:13:07.067Z,12.20
2019-01-06T00:15:53.035Z,13.20
2019-01-06T00:18:52.331Z,12.47
2019-01-06T00:21:37.832Z,9.87
2019-01-06T00:24:27.659Z,11.80
2019-01-06T00:27:22.414Z,12.67
2019-01-06T00:30:05.998Z,13.83
2019-01-06T00:33:04.724Z,14.83
2019-01-06T00:36:03.399Z,11.90
2019-01-06T00:38:48.646Z,12.47
2019-01-06T00:41:38.530Z,13.47
2019-01-06T00:44:25.404Z,12.33
2019-01-06T00:47:24.187Z,14.03
2019-01-06T00:50:13.812Z,14.07
2019-01-06T00:53:18.617Z,13.10
2019-01-06T00:56:11.785Z,14.50
2019-01-06T00:58:57.216Z,15.90
2019-01-06T01:01:46.772Z,16.77
2019-01-06T01:04:45.328Z,17.23
2019-01-06T01:07:31.107Z,17.70
2019-01-06T01:10:32.990Z,16.50
2019-01-06T01:13:26.960Z,15.90
2019-01-06T01:16:16.545Z,15.80
2019-01-06T01:19:02.043Z,16.33
2019-01-06T01:21:47.584Z,15.00
2019-01-06T01:24:43.164Z,17.37
2019-01-06T01:27:28.048Z,16.63
2019-01-06T01:30:07.577Z,17.77
2019-01-06T01:33:00.471Z,18.47
2019-01-06T01:35:52.862Z,19.30
2019-01-06T01:38:35.071Z,15.93
2019-01-06T01:41:14.637Z,15.50
2019-01-06T01:44:00.278Z,15.03
2019-01-06T01:46:39.877Z,17.17
2019-01-06T01:49:28.591Z,15.10
2019-01-06T01:52:27.518Z,15.57
2019-01-06T01:55:12.723Z,16.63
2019-01-06T01:58:02.110Z,16.20
2019-01-06T02:00:46.539Z,16.33
2019-01-06T02:03:34.929Z,17.43
2019-01-06T02:06:35.368Z,16.73
2019-01-06T02:09:21.602Z,15.97
2019-01-06T02:12:11.384Z,17.50
2019-01-06T02:15:00.900Z,16.30
2019-01-06T02:17:46.095Z,17.13
2019-01-06T02:20:32.882Z,17.23
2019-01-06T02:23:19.938Z,15.67
2019-01-06T02:26:04.975Z,18.23
2019-01-06T02:28:57.409Z,14.77
2019-01-06T02:31:53.075Z,16.23
2019-01-06T02:34:51.337Z,14.87
2019-01-06T02:37:28.086Z,18.00
2019-01-06T02:40:20.486Z,16.90
2019-01-06T02:43:07.239Z,15.37
2019-01-06T02:45:52.676Z,16.17
2019-01-06T02:48:35.002Z,15.77
2019-01-06T02:51:20.716Z,16.67
2019-01-06T02:54:21.542Z,15.93
2019-01-06T02:57:23.554Z,16.03
2019-01-06T03:00:19.333Z,14.77
2019-01-06T03:03:14.075Z,15.67
2019-01-06T03:05:59.575Z,16.03
2019-01-06T03:08:45.122Z,15.60
2019-01-06T03:11:30.025Z,16.03
2019-01-06T03:14:28.895Z,14.07
2019-01-06T03:17:14.232Z,16.57
2019-01-06T03:19:59.742Z,15.07
2019-01-06T03:22:51.703Z,14.70
2019-01-06T03:25:41.584Z,15.37
2019-01-06T03:28:27.118Z,13.27
2019-01-06T03:31:16.890Z,14.63
2019-01-06T03:34:05.121Z,14.17
2019-01-06T03:36:54.538Z,14.20
2019-01-06T03:39:50.227Z,13.67
2019-01-06T03:42:39.795Z,13.03
2019-01-06T03:45:24.831Z,12.97
2019-01-06T03:48:23.882Z,12.37
2019-01-06T03:51:16.765Z,12.97
2019-01-06T03:53:58.571Z,13.13
2019-01-06T03:56:44.020Z,12.97
2019-01-06T03:59:42.608Z,14.70
2019-01-06T04:02:39.024Z,14.43
2019-01-06T04:05:24.509Z,14.83
2019-01-06T04:08:13.719Z,14.87
2019-01-06T04:10:56.967Z,13.37
2019-01-06T04:13:43.997Z,14.30
2019-01-06T04:16:33.641Z,15.53
2019-01-06T04:19:27.337Z,14.97
2019-01-06T04:22:14.104Z,13.23
2019-01-06T04:25:01.611Z,13.20
2019-01-06T04:27:55.900Z,15.47
2019-01-06T04:30:39.687Z,16.00
2019-01-06T04:33:29.219Z,13.93
2019-01-06T04:36:24.792Z,16.17
2019-01-06T04:39:10.241Z,14.60
2019-01-06T04:41:55.510Z,14.13
2019-01-06T04:44:39.143Z,14.67
2019-01-06T04:47:28.727Z,13.77
2019-01-06T04:50:14.037Z,13.67
2019-01-06T04:53:16.047Z,13.57
2019-01-06T04:56:01.220Z,14.80
2019-01-06T04:58:50.507Z,14.27
2019-01-06T05:01:45.928Z,15.03
2019-01-06T05:04:44.729Z,13.60
2019-01-06T05:07:31.609Z,13.43
2019-01-06T05:10:33.306Z,14.13
2019-01-06T05:13:18.458Z,14.97
2019-01-06T05:16:23.427Z,14.03
2019-01-06T05:19:13.574Z,13.73
2019-01-06T05:22:06.508Z,16.73
2019-01-06T05:24:51.914Z,14.13
2019-01-06T05:27:37.570Z,14.33
2019-01-06T05:30:27.411Z,13.90
2019-01-06T05:33:19.647Z,15.30
2019-01-06T05:36:11.882Z,14.73
2019-01-06T05:38:57.357Z,14.50
2019-01-06T05:41:42.829Z,15.00
2019-01-06T05:44:28.512Z,14.23
2019-01-06T05:47:24.238Z,14.03
2019-01-06T05:50:11.034Z,14.10
2019-01-06T05:53:15.960Z,11.83
2019-01-06T05:56:05.631Z,14.07
2019-01-06T05:58:51.219Z,14.00
2019-01-06T06:01:38.012Z,14.93
2019-01-06T06:04:23.669Z,12.30
2019-01-06T06:07:29.930Z,12.60
2019-01-06T06:10:15.180Z,12.90
2019-01-06T06:13:04.739Z,15.27
2019-01-06T06:15:49.950Z,13.33
2019-01-06T06:18:35.032Z,12.20
2019-01-06T06:21:16.770Z,13.60
2019-01-06T06:24:06.338Z,13.43
2019-01-06T06:26:56.275Z,12.10
2019-01-06T06:29:41.538Z,14.10
2019-01-06T06:32:40.465Z,12.23
2019-01-06T06:35:30.203Z,11.93
2019-01-06T06:38:15.376Z,11.63
2019-01-06T06:40:57.573Z,13.23
2019-01-06T06:43:44.387Z,12.87
2019-01-06T06:46:29.824Z,13.97
2019-01-06T06:49:09.566Z,12.63
2019-01-06T06:52:05.117Z,11.93
2019-01-06T06:54:50.621Z,12.27
2019-01-06T06:57:53.130Z,13.57
2019-01-06T07:00:59.628Z,13.10
2019-01-06T07:03:46.949Z,12.90
2019-01-06T07:06:33.810Z,12.53
2019-01-06T07:09:20.869Z,13.30
2019-01-06T07:12:05.818Z,14.10
2019-01-06T07:14:44.996Z,14.03
2019-01-06T07:17:49.882Z,12.47
2019-01-06T07:20:29.198Z,12.37
2019-01-06T07:23:16.247Z,12.57
2019-01-06T07:26:08.815Z,11.53
2019-01-06T07:29:25.025Z,12.60
2019-01-06T07:32:10.329Z,11.63
2019-01-06T07:34:57.363Z,11.67
2019-01-06T07:37:59.080Z,11.00
2019-01-06T07:40:49.037Z,11.13
2019-01-06T07:43:25.494Z,10.53
2019-01-06T07:46:03.944Z,9.97
2019-01-06T07:48:59.395Z,10.30
2019-01-06T07:51:49.312Z,9.77
2019-01-06T07:54:42.840Z,9.73
2019-01-06T07:57:44.552Z,12.03
2019-01-06T08:00:31.087Z,10.27
2019-01-06T08:03:27.920Z,10.53
2019-01-06T08:06:23.719Z,9.20
2019-01-06T08:09:22.731Z,9.57
2019-01-06T08:12:03.095Z,9.53
2019-01-06T08:14:53.608Z,9.50
2019-01-06T08:17:38.759Z,9.60
2019-01-06T08:20:25.934Z,9.33
2019-01-06T08:23:21.987Z,8.67
2019-01-06T08:26:07.382Z,9.73
2019-01-06T08:28:52.805Z,10.17
2019-01-06T08:31:28.846Z,8.37
2019-01-06T08:34:16.228Z,9.43
2019-01-06T08:37:01.904Z,9.13
2019-01-06T08:39:47.344Z,9.10
2019-01-06T08:42:46.327Z,9.13
2019-01-06T08:45:51.352Z,8.87
2019-01-06T08:48:37.113Z,9.23
2019-01-06T08:51:21.753Z,8.60
2019-01-06T08:54:06.987Z,9.17
2019-01-06T08:56:59.296Z,8.53
2019-01-06T08:59:46.126Z,10.03
2019-01-06T09:02:50.816Z,8.47
2019-01-06T09:05:35.874Z,9.80
2019-01-06T09:08:25.501Z,9.87
2019-01-06T09:11:10.745Z,9.23
2019-01-06T09:13:53.712Z,9.60
2019-01-06T09:16:38.750Z,10.97
2019-01-06T09:19:37.709Z,9.87
2019-01-06T09:22:42.254Z,9.10
2019-01-06T09:25:27.831Z,9.20
2019-01-06T09:28:13.316Z,8.80
2019-01-06T09:30:58.105Z,9.10
2019-01-06T09:33:42.067Z,8.07
2019-01-06T09:36:27.661Z,9.27
2019-01-06T09:39:14.686Z,8.20
2019-01-06T09:41:48.474Z,7.63
2019-01-06T09:44:34.021Z,8.87
2019-01-06T09:47:23.702Z,7.43
2019-01-06T09:50:22.208Z,7.43
2019-01-06T09:53:08.986Z,7.73
2019-01-06T09:56:03.496Z,8.20
2019-01-06T09:58:56.421Z,7.77
2019-01-06T10:01:52.909Z,8.50
2019-01-06T10:04:38.173Z,8.53
2019-01-06T10:07:26.431Z,8.40
2019-01-06T10:10:12.138Z,7.80
2019-01-06T10:13:01.711Z,7.73
2019-01-06T10:15:48.596Z,8.57
2019-01-06T10:18:38.203Z,7.57
2019-01-06T10:21:40.063Z,9.17
2019-01-06T10:24:29.623Z,9.07
2019-01-06T10:27:31.277Z,8.23
2019-01-06T10:30:10.790Z,10.07
2019-01-06T10:32:46.005Z,9.40
2019-01-06T10:35:47.462Z,8.93
2019-01-06T10:38:40.017Z,10.30
2019-01-06T10:41:22.736Z,10.33
2019-01-06T10:44:21.736Z,9.77
2019-01-06T10:47:08.790Z,9.87
2019-01-06T10:50:13.318Z,10.90
2019-01-06T10:52:58.566Z,10.87
2019-01-06T10:55:43.078Z,9.87
2019-01-06T10:58:28.339Z,11.57
2019-01-06T11:01:13.347Z,11.30
2019-01-06T11:04:03.218Z,11.67
2019-01-06T11:06:58.223Z,11.60
2019-01-06T11:09:43.462Z,12.67
2019-01-06T11:12:16.540Z,11.03
2019-01-06T11:14:55.506Z,11.20
2019-01-06T11:17:41.092Z,10.93
2019-01-06T11:20:36.985Z,13.00
2019-01-06T11:23:22.275Z,13.27
2019-01-06T11:26:17.578Z,14.07
2019-01-06T11:29:02.800Z,13.60
2019-01-06T11:32:01.676Z,12.37
2019-01-06T11:34:46.961Z,13.17
2019-01-06T11:37:31.964Z,13.20
2019-01-06T11:40:18.821Z,14.30
2019-01-06T11:43:20.290Z,14.17
2019-01-06T11:46:05.797Z,14.80
2019-01-06T11:48:55.292Z,15.13
2019-01-06T11:51:42.096Z,14.00
2019-01-06T11:54:27.134Z,13.07
2019-01-06T11:57:17.013Z,13.60
2019-01-06T12:00:06.658Z,14.17
2019-01-06T12:02:52.166Z,15.03
2019-01-06T12:05:38.057Z,14.83
2019-01-06T12:08:23.341Z,15.17
2019-01-06T12:11:08.921Z,14.53
2019-01-06T12:14:14.528Z,15.27
2019-01-06T12:16:58.364Z,14.70
2019-01-06T12:19:49.129Z,15.80
2019-01-06T12:23:03.817Z,15.57
2019-01-06T12:25:49.253Z,14.97
2019-01-06T12:28:41.804Z,15.10
2019-01-06T12:31:30.079Z,15.70
2019-01-06T12:34:25.491Z,15.70
2019-01-06T12:37:15.561Z,15.73
2019-01-06T12:39:59.789Z,14.53
2019-01-06T12:42:45.338Z,15.00
2019-01-06T12:45:25.440Z,16.23
2019-01-06T12:48:13.132Z,15.67
2019-01-06T12:51:09.845Z,16.47
2019-01-06T12:53:55.678Z,15.33
2019-01-06T12:56:57.650Z,14.17
2019-01-06T12:59:44.432Z,14.53
2019-01-06T13:02:34.237Z,14.67
2019-01-06T13:05:25.485Z,15.03
2019-01-06T13:08:02.876Z,16.70
2019-01-06T13:10:48.453Z,16.43
2019-01-06T13:13:37.025Z,17.67
2019-01-06T13:16:42.063Z,16.37
2019-01-06T13:19:34.663Z,14.70
2019-01-06T13:22:20.049Z,15.60
2019-01-06T13:25:06.856Z,16.00
2019-01-06T13:27:59.758Z,15.70
2019-01-06T13:31:05.964Z,17.53
2019-01-06T13:33:51.251Z,15.33
2019-01-06T13:36:38.129Z,16.20
2019-01-06T13:39:43.201Z,16.33
2019-01-06T13:42:28.400Z,16.97
2019-01-06T13:45:25.431Z,17.23
2019-01-06T13:48:12.326Z,17.30
2019-01-06T13:50:57.849Z,18.20
2019-01-06T13:53:43.344Z,16.80
2019-01-06T13:56:33.262Z,16.97
2019-01-06T13:59:18.848Z,18.60
2019-01-06T14:02:17.666Z,19.07
2019-01-06T14:05:13.468Z,18.50
2019-01-06T14:08:00.333Z,19.37
2019-01-06T14:10:52.995Z,20.47
2019-01-06T14:13:40.057Z,19.43
2019-01-06T14:16:25.686Z,18.87
2019-01-06T14:19:11.218Z,20.03
2019-01-06T14:22:03.621Z,19.17
2019-01-06T14:24:45.420Z,19.43
2019-01-06T14:27:34.998Z,20.03
2019-01-06T14:30:26.012Z,19.40
2019-01-06T14:33:27.834Z,19.77
2019-01-06T14:36:13.642Z,18.97
2019-01-06T14:38:58.823Z,18.60
2019-01-06T14:41:44.254Z,20.07
2019-01-06T14:44:29.620Z,19.33
2019-01-06T14:47:21.942Z,21.20
2019-01-06T14:50:13.820Z,18.80
2019-01-06T14:53:03.653Z,19.53
2019-01-06T14:55:56.736Z,20.50
2019-01-06T14:58:32.174Z,20.27
2019-01-06T15:01:27.962Z,19.67
2019-01-06T15:04:32.788Z,18.70
2019-01-06T15:07:33.313Z,18.50
2019-01-06T15:10:25.988Z,18.87
2019-01-06T15:13:30.845Z,19.77
2019-01-06T15:16:16.043Z,19.73
2019-01-06T15:19:14.598Z,19.53
2019-01-06T15:22:04.148Z,19.87
2019-01-06T15:24:59.914Z,21.10
2019-01-06T15:27:45.748Z,19.40
2019-01-06T15:30:31.261Z,20.23
2019-01-06T15:33:16.186Z,20.30
2019-01-06T15:36:08.641Z,21.77
2019-01-06T15:38:46.314Z,20.60
2019-01-06T15:41:38.971Z,22.57
2019-01-06T15:44:24.571Z,18.77
2019-01-06T15:47:26.634Z,20.80
2019-01-06T15:50:07.086Z,20.00
2019-01-06T15:52:52.567Z,20.37
2019-01-06T15:55:42.242Z,21.00
2019-01-06T15:58:34.983Z,21.33
2019-01-06T16:01:22.110Z,20.47
2019-01-06T16:04:20.813Z,21.43
2019-01-06T16:06:58.776Z,21.20
2019-01-06T16:09:39.279Z,22.83
2019-01-06T16:12:14.863Z,21.87
2019-01-06T16:15:04.494Z,21.60
2019-01-06T16:18:09.224Z,20.93
2019-01-06T16:20:54.196Z,22.23
2019-01-06T16:23:39.701Z,22.53
2019-01-06T16:26:22.103Z,21.53
2019-01-06T16:29:23.647Z,21.37
2019-01-06T16:32:22.373Z,21.53
2019-01-06T16:35:27.220Z,21.90
2019-01-06T16:38:16.908Z,20.87
2019-01-06T16:40:57.103Z,21.40
2019-01-06T16:43:44.719Z,22.80
2019-01-06T16:46:49.569Z,22.93
2019-01-06T16:49:34.553Z,21.13
2019-01-06T16:52:20.109Z,22.27
2019-01-06T16:55:05.545Z,22.37
2019-01-06T16:57:49.641Z,23.53
2019-01-06T17:00:48.743Z,22.23
2019-01-06T17:03:29.281Z,23.10
2019-01-06T17:06:27.609Z,23.83
2019-01-06T17:09:16.984Z,19.33
2019-01-06T17:12:02.233Z,22.97
2019-01-06T17:14:47.704Z,24.50
2019-01-06T17:17:40.260Z,24.77
2019-01-06T17:20:32.923Z,24.70
2019-01-06T17:23:22.560Z,25.47
2019-01-06T17:26:10.374Z,23.13
2019-01-06T17:28:55.938Z,21.17
2019-01-06T17:31:45.935Z,24.13
2019-01-06T17:34:35.512Z,23.57
2019-01-06T17:37:28.160Z,23.83
2019-01-06T17:40:10.702Z,24.77
2019-01-06T17:42:59.143Z,27.73
2019-01-06T17:45:58.172Z,24.80
2019-01-06T17:48:41.674Z,24.40
2019-01-06T17:51:38.568Z,22.67
2019-01-06T17:54:37.936Z,23.50
2019-01-06T17:57:23.499Z,22.93
2019-01-06T18:00:21.961Z,24.77
2019-01-06T18:03:13.859Z,23.57
2019-01-06T18:05:55.284Z,23.37
2019-01-06T18:08:39.946Z,24.13
2019-01-06T18:11:24.963Z,24.00
2019-01-06T18:13:57.872Z,25.67
2019-01-06T18:16:52.597Z,27.10
2019-01-06T18:19:38.036Z,26.03
2019-01-06T18:22:27.109Z,26.50
2019-01-06T18:25:32.212Z,25.97
2019-01-06T18:28:18.300Z,26.07
2019-01-06T18:31:08.209Z,24.17
2019-01-06T18:33:53.459Z,27.47
2019-01-06T18:36:44.104Z,24.43
2019-01-06T18:39:45.746Z,23.80
2019-01-06T18:42:47.479Z,25.40
2019-01-06T18:45:49.208Z,23.13
2019-01-06T18:48:42.023Z,27.03
2019-01-06T18:51:27.545Z,25.77
2019-01-06T18:54:25.588Z,26.10
2019-01-06T18:57:12.450Z,24.23
2019-01-06T18:59:55.598Z,24.20
2019-01-06T19:02:48.449Z,26.63
2019-01-06T19:05:33.953Z,24.37
2019-01-06T19:08:39.215Z,26.93
2019-01-06T19:11:26.996Z,26.30
2019-01-06T19:14:16.955Z,26.80
2019-01-06T19:17:02.543Z,27.00
2019-01-06T19:19:48.199Z,26.27
2019-01-06T19:22:53.254Z,26.90
2019-01-06T19:25:38.706Z,25.60
2019-01-06T19:28:24.045Z,27.50
2019-01-06T19:31:16.740Z,25.97
2019-01-06T19:34:06.351Z,26.20
2019-01-06T19:37:05.294Z,26.90
2019-01-06T19:39:50.650Z,25.30
2019-01-06T19:42:32.576Z,26.40
2019-01-06T19:45:19.462Z,25.87
2019-01-06T19:47:59.861Z,27.13
2019-01-06T19:51:01.568Z,25.60
2019-01-06T19:53:51.379Z,25.40
2019-01-06T19:56:53.294Z,28.33
2019-01-06T19:59:40.104Z,25.97
2019-01-06T20:02:23.644Z,25.87
2019-01-06T20:05:18.653Z,27.07
2019-01-06T20:08:15.086Z,26.63
2019-01-06T20:11:19.872Z,26.73
2019-01-06T20:14:24.569Z,25.27
2019-01-06T20:17:11.722Z,26.37
2019-01-06T20:19:57.183Z,29.50
2019-01-06T20:22:48.765Z,28.57
2019-01-06T20:25:39.615Z,26.77
2019-01-06T20:28:35.456Z,27.30
2019-01-06T20:31:28.180Z,28.40
2019-01-06T20:34:17.886Z,27.20
2019-01-06T20:37:04.674Z,25.70
2019-01-06T20:39:51.515Z,29.37
2019-01-06T20:42:36.671Z,28.20
2019-01-06T20:45:38.568Z,26.47
2019-01-06T20:48:37.174Z,25.83
2019-01-06T20:51:29.811Z,28.33
2019-01-06T20:54:19.362Z,28.57
2019-01-06T20:57:04.766Z,27.87
2019-01-06T20:59:54.076Z,28.13
2019-01-06T21:02:40.967Z,28.57
2019-01-06T21:05:30.627Z,30.43
2019-01-06T21:08:20.148Z,27.87
2019-01-06T21:11:01.159Z,31.23
2019-01-06T21:13:48.088Z,29.20
2019-01-06T21:16:30.113Z,30.43
2019-01-06T21:19:20.081Z,29.93
2019-01-06T21:22:07.012Z,30.53
2019-01-06T21:25:02.557Z,29.90
2019-01-06T21:28:05.992Z,29.10
2019-01-06T21:30:51.196Z,30.00
2019-01-06T21:33:45.723Z,30.87
2019-01-06T21:36:32.523Z,29.90
2019-01-06T21:39:25.719Z,30.03
2019-01-06T21:42:13.156Z,29.10
2019-01-06T21:45:09.132Z,30.30
2019-01-06T21:47:54.420Z,29.50
2019-01-06T21:50:35.903Z,29.13
2019-01-06T21:53:20.860Z,29.03
2019-01-06T21:56:06.376Z,30.00
2019-01-06T21:58:56.298Z,29.80
2019-01-06T22:01:40.651Z,29.07
2019-01-06T22:04:27.524Z,29.13
2019-01-06T22:07:17.195Z,28.60
2019-01-06T22:10:11.772Z,28.67
2019-01-06T22:12:56.114Z,31.03
2019-01-06T22:15:36.736Z,30.33
2019-01-06T22:18:23.590Z,30.47
2019-01-06T22:21:17.020Z,32.23
2019-01-06T22:24:03.938Z,35.13
2019-01-06T22:26:38.905Z,35.93
2019-01-06T22:29:24.140Z,37.20
2019-01-06T22:32:09.657Z,36.70
2019-01-06T22:34:55.084Z,41.43
2019-01-06T22:37:48.114Z,40.77
2019-01-06T22:40:43.875Z,38.27
2019-01-06T22:43:29.412Z,34.97
2019-01-06T22:46:21.842Z,34.13
2019-01-06T22:49:07.808Z,34.77
2019-01-06T22:52:06.653Z,33.00
2019-01-06T22:55:08.433Z,34.37
2019-01-06T22:57:53.765Z,35.00
2019-01-06T23:00:42.261Z,34.00
2019-01-06T23:03:27.893Z,36.90
2019-01-06T23:06:18.069Z,35.50
2019-01-06T23:09:04.863Z,35.73
2019-01-06T23:11:45.879Z,37.07
2019-01-06T23:14:31.108Z,35.37
2019-01-06T23:17:17.884Z,32.30
2019-01-06T23:20:24.111Z,34.20
2019-01-06T23:23:12.498Z,33.83
2019-01-06T23:26:05.031Z,35.90
2019-01-06T23:28:54.671Z,34.63
2019-01-06T23:31:32.674Z,35.70
2019-01-06T23:34:17.238Z,35.73
2019-01-06T23:37:09.982Z,35.17
2019-01-06T23:40:05.414Z,35.47
2019-01-06T23:42:53.544Z,33.37
2019-01-06T23:45:58.035Z,30.37
2019-01-06T23:48:59.751Z,30.00
2019-01-06T23:51:58.840Z,29.20
2019-01-06T23:54:45.892Z,31.77
2019-01-06T23:57:23.221Z,29.30
